sensor_id;sensor_type;location;lat;lon;timestamp;pressure;altitude;pressure_sealevel;temperature;humidity
34482;BME280;20720;48.886;9.388;2023-11-19T00:01:51;98228.84;;;11.57;100.00
34482;BME280;20720;48.886;9.388;2023-11-19T00:04:16;98221.09;;;11.75;100.00
34482;BME280;20720;48.886;9.388;2023-11-19T00:06:42;98223.28;;;11.85;100.00
34482;BME280;20720;48.886;9.388;2023-11-19T00:09:07;98220.09;;;12.20;100.00
34482;BME280;20720;48.886;9.388;2023-11-19T00:11:33;98221.69;;;12.21;100.00
34482;BME280;20720;48.886;9.388;2023-11-19T00:13:58;98206.91;;;11.83;100.00
34482;BME280;20720;48.886;9.388;2023-11-19T00:16:23;98203.72;;;11.74;100.00
34482;BME280;20720;48.886;9.388;2023-11-19T00:18:49;98190.38;;;11.63;100.00
34482;BME280;20720;48.886;9.388;2023-11-19T00:21:15;98187.22;;;11.41;100.00
34482;BME280;20720;48.886;9.388;2023-11-19T00:23:40;98167.41;;;11.89;100.00
34482;BME280;20720;48.886;9.388;2023-11-19T00:26:05;98169.28;;;11.76;100.00
34482;BME280;20720;48.886;9.388;2023-11-19T00:28:32;98172.81;;;11.94;100.00
34482;BME280;20720;48.886;9.388;2023-11-19T00:30:58;98181.69;;;12.06;100.00
34482;BME280;20720;48.886;9.388;2023-11-19T00:33:24;98180.53;;;12.52;100.00
34482;BME280;20720;48.886;9.388;2023-11-19T00:35:49;98170.47;;;11.86;100.00
34482;BME280;20720;48.886;9.388;2023-11-19T00:38:15;98172.72;;;11.76;100.00
34482;BME280;20720;48.886;9.388;2023-11-19T00:40:40;98172.38;;;11.60;100.00
34482;BME280;20720;48.886;9.388;2023-11-19T00:43:06;98161.81;;;12.10;100.00
34482;BME280;20720;48.886;9.388;2023-11-19T00:45:32;98179.13;;;12.24;100.00
34482;BME280;20720;48.886;9.388;2023-11-19T00:47:57;98188.25;;;11.91;100.00
34482;BME280;20720;48.886;9.388;2023-11-19T00:50:24;98192.28;;;12.56;100.00
34482;BME280;20720;48.886;9.388;2023-11-19T00:52:50;98185.88;;;12.70;100.00
34482;BME280;20720;48.886;9.388;2023-11-19T00:55:15;98188.97;;;12.04;100.00
34482;BME280;20720;48.886;9.388;2023-11-19T00:57:40;98175.13;;;12.47;100.00
34482;BME280;20720;48.886;9.388;2023-11-19T01:00:06;98172.38;;;12.60;100.00
34482;BME280;20720;48.886;9.388;2023-11-19T01:02:43;98160.41;;;12.32;100.00
34482;BME280;20720;48.886;9.388;2023-11-19T01:05:08;98180.78;;;12.19;100.00
34482;BME280;20720;48.886;9.388;2023-11-19T01:07:34;98169.34;;;12.00;100.00
34482;BME280;20720;48.886;9.388;2023-11-19T01:09:59;98159.56;;;12.07;100.00
34482;BME280;20720;48.886;9.388;2023-11-19T01:12:24;98171.31;;;12.43;100.00
34482;BME280;20720;48.886;9.388;2023-11-19T01:14:49;98160.00;;;12.36;100.00
34482;BME280;20720;48.886;9.388;2023-11-19T01:17:15;98161.56;;;12.18;100.00
34482;BME280;20720;48.886;9.388;2023-11-19T01:19:41;98147.16;;;12.46;100.00
34482;BME280;20720;48.886;9.388;2023-11-19T01:22:06;98141.81;;;12.27;100.00
34482;BME280;20720;48.886;9.388;2023-11-19T01:24:31;98135.34;;;12.55;100.00
34482;BME280;20720;48.886;9.388;2023-11-19T01:26:57;98150.97;;;12.50;100.00
34482;BME280;20720;48.886;9.388;2023-11-19T01:29:24;98147.84;;;12.35;100.00
34482;BME280;20720;48.886;9.388;2023-11-19T01:31:50;98134.28;;;12.98;100.00
34482;BME280;20720;48.886;9.388;2023-11-19T01:34:16;98146.06;;;12.78;100.00
34482;BME280;20720;48.886;9.388;2023-11-19T01:36:41;98140.97;;;12.58;100.00
34482;BME280;20720;48.886;9.388;2023-11-19T01:39:06;98137.25;;;12.66;100.00
34482;BME280;20720;48.886;9.388;2023-11-19T01:41:35;98138.22;;;12.89;100.00
34482;BME280;20720;48.886;9.388;2023-11-19T01:44:01;98139.03;;;12.47;100.00
34482;BME280;20720;48.886;9.388;2023-11-19T01:46:26;98138.22;;;12.47;100.00
34482;BME280;20720;48.886;9.388;2023-11-19T01:48:52;98130.09;;;12.73;100.00
34482;BME280;20720;48.886;9.388;2023-11-19T01:51:19;98138.41;;;12.94;100.00
34482;BME280;20720;48.886;9.388;2023-11-19T01:53:45;98151.78;;;12.50;100.00
34482;BME280;20720;48.886;9.388;2023-11-19T01:56:13;98137.63;;;13.30;100.00
34482;BME280;20720;48.886;9.388;2023-11-19T01:58:40;98132.06;;;13.20;100.00
34482;BME280;20720;48.886;9.388;2023-11-19T02:01:06;98128.63;;;12.77;100.00
34482;BME280;20720;48.886;9.388;2023-11-19T02:03:33;98131.84;;;13.03;100.00
34482;BME280;20720;48.886;9.388;2023-11-19T02:05:59;98137.03;;;13.10;100.00
34482;BME280;20720;48.886;9.388;2023-11-19T02:08:24;98143.63;;;13.37;100.00
34482;BME280;20720;48.886;9.388;2023-11-19T02:10:49;98154.44;;;13.83;100.00
34482;BME280;20720;48.886;9.388;2023-11-19T02:13:15;98152.09;;;13.57;100.00
34482;BME280;20720;48.886;9.388;2023-11-19T02:15:41;98161.94;;;14.28;100.00
34482;BME280;20720;48.886;9.388;2023-11-19T02:20:44;98130.34;;;13.44;100.00
34482;BME280;20720;48.886;9.388;2023-11-19T02:23:10;98144.94;;;13.64;100.00
34482;BME280;20720;48.886;9.388;2023-11-19T02:25:35;98134.78;;;13.79;100.00
34482;BME280;20720;48.886;9.388;2023-11-19T02:28:02;98128.25;;;13.16;100.00
34482;BME280;20720;48.886;9.388;2023-11-19T02:30:28;98108.50;;;13.55;100.00
34482;BME280;20720;48.886;9.388;2023-11-19T02:32:58;98125.56;;;14.11;100.00
34482;BME280;20720;48.886;9.388;2023-11-19T02:35:27;98131.09;;;14.22;100.00
34482;BME280;20720;48.886;9.388;2023-11-19T02:37:54;98139.19;;;13.67;100.00
34482;BME280;20720;48.886;9.388;2023-11-19T02:40:19;98140.09;;;13.91;100.00
34482;BME280;20720;48.886;9.388;2023-11-19T02:42:44;98138.78;;;14.11;100.00
34482;BME280;20720;48.886;9.388;2023-11-19T02:45:10;98146.16;;;13.91;100.00
34482;BME280;20720;48.886;9.388;2023-11-19T02:47:40;98138.00;;;14.23;100.00
34482;BME280;20720;48.886;9.388;2023-11-19T02:50:06;98146.34;;;14.38;100.00
34482;BME280;20720;48.886;9.388;2023-11-19T02:52:38;98143.50;;;14.62;100.00
34482;BME280;20720;48.886;9.388;2023-11-19T02:55:04;98150.56;;;14.39;100.00
34482;BME280;20720;48.886;9.388;2023-11-19T02:57:34;98139.94;;;14.57;100.00
34482;BME280;20720;48.886;9.388;2023-11-19T02:59:59;98153.38;;;14.78;100.00
34482;BME280;20720;48.886;9.388;2023-11-19T03:02:24;98146.13;;;13.50;100.00
34482;BME280;20720;48.886;9.388;2023-11-19T03:04:58;98129.81;;;14.12;100.00
34482;BME280;20720;48.886;9.388;2023-11-19T03:07:24;98142.31;;;14.35;100.00
34482;BME280;20720;48.886;9.388;2023-11-19T03:09:49;98142.31;;;14.35;100.00
34482;BME280;20720;48.886;9.388;2023-11-19T03:12:14;98157.34;;;14.35;100.00
34482;BME280;20720;48.886;9.388;2023-11-19T03:14:40;98139.28;;;13.90;100.00
34482;BME280;20720;48.886;9.388;2023-11-19T03:17:05;98144.94;;;14.35;100.00
34482;BME280;20720;48.886;9.388;2023-11-19T03:19:30;98147.28;;;14.25;100.00
34482;BME280;20720;48.886;9.388;2023-11-19T03:21:56;98142.75;;;14.32;100.00
34482;BME280;20720;48.886;9.388;2023-11-19T03:24:21;98147.25;;;14.43;100.00
34482;BME280;20720;48.886;9.388;2023-11-19T03:26:49;98145.44;;;14.67;100.00
34482;BME280;20720;48.886;9.388;2023-11-19T03:29:17;98148.31;;;14.65;100.00
34482;BME280;20720;48.886;9.388;2023-11-19T03:31:42;98164.88;;;14.61;100.00
34482;BME280;20720;48.886;9.388;2023-11-19T03:34:08;98164.69;;;14.33;100.00
34482;BME280;20720;48.886;9.388;2023-11-19T03:36:33;98140.72;;;14.57;100.00
34482;BME280;20720;48.886;9.388;2023-11-19T03:38:59;98138.09;;;14.46;100.00
34482;BME280;20720;48.886;9.388;2023-11-19T03:41:24;98134.28;;;14.42;100.00
34482;BME280;20720;48.886;9.388;2023-11-19T03:43:49;98121.19;;;14.05;100.00
34482;BME280;20720;48.886;9.388;2023-11-19T03:46:18;98107.53;;;14.08;100.00
34482;BME280;20720;48.886;9.388;2023-11-19T03:48:44;98109.34;;;14.38;100.00
34482;BME280;20720;48.886;9.388;2023-11-19T03:51:09;98110.94;;;14.39;100.00
34482;BME280;20720;48.886;9.388;2023-11-19T03:53:35;98109.72;;;14.11;100.00
34482;BME280;20720;48.886;9.388;2023-11-19T03:56:00;98083.59;;;13.92;100.00
34482;BME280;20720;48.886;9.388;2023-11-19T03:58:26;98086.88;;;14.17;100.00
34482;BME280;20720;48.886;9.388;2023-11-19T04:00:51;98082.25;;;14.12;100.00
34482;BME280;20720;48.886;9.388;2023-11-19T04:03:16;98077.56;;;14.14;100.00
34482;BME280;20720;48.886;9.388;2023-11-19T04:05:41;98074.84;;;14.56;100.00
34482;BME280;20720;48.886;9.388;2023-11-19T04:08:07;98074.28;;;14.54;100.00
34482;BME280;20720;48.886;9.388;2023-11-19T04:10:32;98067.97;;;14.43;100.00
34482;BME280;20720;48.886;9.388;2023-11-19T04:12:57;98067.56;;;14.16;100.00
34482;BME280;20720;48.886;9.388;2023-11-19T04:15:22;98058.72;;;14.23;100.00
34482;BME280;20720;48.886;9.388;2023-11-19T04:17:49;98059.19;;;13.67;100.00
34482;BME280;20720;48.886;9.388;2023-11-19T04:20:14;98052.56;;;13.87;100.00
34482;BME280;20720;48.886;9.388;2023-11-19T04:22:40;98059.06;;;14.26;100.00
34482;BME280;20720;48.886;9.388;2023-11-19T04:25:06;98049.34;;;13.74;100.00
34482;BME280;20720;48.886;9.388;2023-11-19T04:27:31;98047.69;;;13.61;100.00
34482;BME280;20720;48.886;9.388;2023-11-19T04:29:57;98039.91;;;13.66;100.00
34482;BME280;20720;48.886;9.388;2023-11-19T04:32:22;98036.31;;;13.49;100.00
34482;BME280;20720;48.886;9.388;2023-11-19T04:34:47;98038.16;;;13.31;100.00
34482;BME280;20720;48.886;9.388;2023-11-19T04:37:12;98036.41;;;13.95;100.00
34482;BME280;20720;48.886;9.388;2023-11-19T04:39:38;98034.28;;;13.74;100.00
34482;BME280;20720;48.886;9.388;2023-11-19T04:42:03;98040.88;;;13.95;100.00
34482;BME280;20720;48.886;9.388;2023-11-19T04:44:29;98053.88;;;14.19;100.00
34482;BME280;20720;48.886;9.388;2023-11-19T04:46:55;98045.81;;;13.91;100.00
34482;BME280;20720;48.886;9.388;2023-11-19T04:49:20;98054.56;;;14.03;100.00
34482;BME280;20720;48.886;9.388;2023-11-19T04:51:45;98066.56;;;14.41;100.00
34482;BME280;20720;48.886;9.388;2023-11-19T04:54:14;98066.28;;;14.07;100.00
34482;BME280;20720;48.886;9.388;2023-11-19T04:56:39;98055.47;;;13.97;100.00
34482;BME280;20720;48.886;9.388;2023-11-19T04:59:05;98061.22;;;13.94;100.00
34482;BME280;20720;48.886;9.388;2023-11-19T05:01:32;98072.03;;;14.16;100.00
34482;BME280;20720;48.886;9.388;2023-11-19T05:03:57;98068.56;;;13.92;100.00
34482;BME280;20720;48.886;9.388;2023-11-19T05:06:29;98064.03;;;14.69;100.00
34482;BME280;20720;48.886;9.388;2023-11-19T05:08:56;98058.63;;;13.76;100.00
34482;BME280;20720;48.886;9.388;2023-11-19T05:11:22;98066.81;;;14.51;100.00
34482;BME280;20720;48.886;9.388;2023-11-19T05:13:47;98067.06;;;14.08;100.00
34482;BME280;20720;48.886;9.388;2023-11-19T05:16:13;98073.25;;;14.66;100.00
34482;BME280;20720;48.886;9.388;2023-11-19T05:18:41;98064.34;;;14.14;100.00
34482;BME280;20720;48.886;9.388;2023-11-19T05:21:06;98062.84;;;14.18;100.00
34482;BME280;20720;48.886;9.388;2023-11-19T05:23:34;98075.38;;;13.70;100.00
34482;BME280;20720;48.886;9.388;2023-11-19T05:26:03;98077.25;;;14.80;100.00
34482;BME280;20720;48.886;9.388;2023-11-19T05:28:29;98082.00;;;14.44;100.00
34482;BME280;20720;48.886;9.388;2023-11-19T05:30:54;98073.84;;;13.92;100.00
34482;BME280;20720;48.886;9.388;2023-11-19T05:33:20;98058.66;;;14.41;100.00
34482;BME280;20720;48.886;9.388;2023-11-19T05:35:45;98069.44;;;14.28;100.00
34482;BME280;20720;48.886;9.388;2023-11-19T05:38:11;98063.50;;;14.02;100.00
34482;BME280;20720;48.886;9.388;2023-11-19T05:40:36;98073.81;;;14.80;100.00
34482;BME280;20720;48.886;9.388;2023-11-19T05:43:03;98083.00;;;14.89;100.00
34482;BME280;20720;48.886;9.388;2023-11-19T05:45:29;98094.84;;;14.52;100.00
34482;BME280;20720;48.886;9.388;2023-11-19T05:47:54;98077.09;;;14.17;100.00
34482;BME280;20720;48.886;9.388;2023-11-19T05:50:20;98066.69;;;14.57;100.00
34482;BME280;20720;48.886;9.388;2023-11-19T05:52:46;98073.94;;;14.62;100.00
34482;BME280;20720;48.886;9.388;2023-11-19T05:55:11;98078.19;;;14.40;100.00
34482;BME280;20720;48.886;9.388;2023-11-19T05:57:38;98062.66;;;14.32;100.00
34482;BME280;20720;48.886;9.388;2023-11-19T06:00:03;98070.28;;;14.10;100.00
34482;BME280;20720;48.886;9.388;2023-11-19T06:02:32;98078.88;;;14.47;100.00
34482;BME280;20720;48.886;9.388;2023-11-19T06:04:57;98081.88;;;14.73;100.00
34482;BME280;20720;48.886;9.388;2023-11-19T06:07:23;98063.50;;;14.02;100.00
34482;BME280;20720;48.886;9.388;2023-11-19T06:09:48;98071.06;;;14.29;100.00
34482;BME280;20720;48.886;9.388;2023-11-19T06:12:13;98075.66;;;14.79;100.00
34482;BME280;20720;48.886;9.388;2023-11-19T06:14:40;98080.84;;;14.63;100.00
34482;BME280;20720;48.886;9.388;2023-11-19T06:17:05;98083.72;;;15.24;100.00
34482;BME280;20720;48.886;9.388;2023-11-19T06:19:31;98092.16;;;15.21;100.00
34482;BME280;20720;48.886;9.388;2023-11-19T06:21:56;98097.31;;;15.16;100.00
34482;BME280;20720;48.886;9.388;2023-11-19T06:24:21;98102.50;;;15.11;100.00
34482;BME280;20720;48.886;9.388;2023-11-19T06:26:47;98098.47;;;15.20;100.00
34482;BME280;20720;48.886;9.388;2023-11-19T06:29:13;98103.25;;;15.46;100.00
34482;BME280;20720;48.886;9.388;2023-11-19T06:31:43;98106.38;;;15.43;100.00
34482;BME280;20720;48.886;9.388;2023-11-19T06:34:08;98103.19;;;15.18;100.00
34482;BME280;20720;48.886;9.388;2023-11-19T06:36:34;98088.53;;;14.87;100.00
34482;BME280;20720;48.886;9.388;2023-11-19T06:38:59;98077.38;;;14.28;100.00
34482;BME280;20720;48.886;9.388;2023-11-19T06:41:24;98091.19;;;14.76;100.00
34482;BME280;20720;48.886;9.388;2023-11-19T06:43:49;98088.41;;;14.71;100.00
34482;BME280;20720;48.886;9.388;2023-11-19T06:46:18;98090.19;;;15.17;100.00
34482;BME280;20720;48.886;9.388;2023-11-19T06:48:44;98085.47;;;14.14;100.00
34482;BME280;20720;48.886;9.388;2023-11-19T06:51:10;98092.28;;;14.91;100.00
34482;BME280;20720;48.886;9.388;2023-11-19T06:53:35;98096.47;;;14.64;100.00
34482;BME280;20720;48.886;9.388;2023-11-19T06:56:01;98090.03;;;14.83;100.00
34482;BME280;20720;48.886;9.388;2023-11-19T06:58:32;98097.16;;;14.71;100.00
34482;BME280;20720;48.886;9.388;2023-11-19T07:00:57;98095.97;;;15.02;100.00
34482;BME280;20720;48.886;9.388;2023-11-19T07:03:22;98098.88;;;14.77;100.00
34482;BME280;20720;48.886;9.388;2023-11-19T07:05:48;98096.94;;;14.38;100.00
34482;BME280;20720;48.886;9.388;2023-11-19T07:08:13;98088.41;;;14.71;100.00
34482;BME280;20720;48.886;9.388;2023-11-19T07:10:39;98092.91;;;15.33;100.00
34482;BME280;20720;48.886;9.388;2023-11-19T07:13:04;98097.63;;;14.80;100.00
34482;BME280;20720;48.886;9.388;2023-11-19T07:15:31;98103.25;;;14.72;100.00
34482;BME280;20720;48.886;9.388;2023-11-19T07:17:57;98092.91;;;14.59;100.00
34482;BME280;20720;48.886;9.388;2023-11-19T07:20:23;98105.56;;;14.57;100.00
34482;BME280;20720;48.886;9.388;2023-11-19T07:22:48;98110.47;;;14.99;100.00
34482;BME280;20720;48.886;9.388;2023-11-19T07:25:14;98115.94;;;15.44;100.00
34482;BME280;20720;48.886;9.388;2023-11-19T07:27:39;98132.41;;;15.35;100.00
34482;BME280;20720;48.886;9.388;2023-11-19T07:30:06;98141.19;;;15.12;100.00
34482;BME280;20720;48.886;9.388;2023-11-19T07:32:32;98130.47;;;14.72;100.00
34482;BME280;20720;48.886;9.388;2023-11-19T07:34:58;98135.94;;;15.40;100.00
34482;BME280;20720;48.886;9.388;2023-11-19T07:37:23;98133.16;;;14.61;100.00
34482;BME280;20720;48.886;9.388;2023-11-19T07:39:49;98133.09;;;15.19;100.00
34482;BME280;20720;48.886;9.388;2023-11-19T07:42:14;98148.16;;;15.41;100.00
34482;BME280;20720;48.886;9.388;2023-11-19T07:44:39;98156.81;;;15.76;100.00
34482;BME280;20720;48.886;9.388;2023-11-19T07:47:04;98154.28;;;15.19;100.00
34482;BME280;20720;48.886;9.388;2023-11-19T07:49:30;98142.56;;;14.57;100.00
34482;BME280;20720;48.886;9.388;2023-11-19T07:51:56;98144.69;;;15.52;100.00
34482;BME280;20720;48.886;9.388;2023-11-19T07:54:21;98142.69;;;15.08;100.00
34482;BME280;20720;48.886;9.388;2023-11-19T07:56:46;98134.84;;;14.90;100.00
34482;BME280;20720;48.886;9.388;2023-11-19T07:59:12;98131.97;;;15.15;100.00
34482;BME280;20720;48.886;9.388;2023-11-19T08:01:38;98127.50;;;14.92;100.00
34482;BME280;20720;48.886;9.388;2023-11-19T08:04:04;98133.00;;;15.25;100.00
34482;BME280;20720;48.886;9.388;2023-11-19T08:06:29;98126.69;;;14.91;100.00
34482;BME280;20720;48.886;9.388;2023-11-19T08:08:55;98133.81;;;14.56;100.00
34482;BME280;20720;48.886;9.388;2023-11-19T08:11:20;98125.75;;;14.97;100.00
34482;BME280;20720;48.886;9.388;2023-11-19T08:13:45;98127.16;;;15.12;100.00
34482;BME280;20720;48.886;9.388;2023-11-19T08:16:11;98125.44;;;14.82;100.00
34482;BME280;20720;48.886;9.388;2023-11-19T08:18:36;98123.19;;;15.14;100.00
34482;BME280;20720;48.886;9.388;2023-11-19T08:21:01;98115.38;;;15.19;100.00
34482;BME280;20720;48.886;9.388;2023-11-19T08:23:29;98122.19;;;15.15;100.00
34482;BME280;20720;48.886;9.388;2023-11-19T08:25:55;98129.59;;;16.26;100.00
34482;BME280;20720;48.886;9.388;2023-11-19T08:28:20;98139.19;;;15.82;100.00
34482;BME280;20720;48.886;9.388;2023-11-19T08:30:46;98148.09;;;15.64;100.00
34482;BME280;20720;48.886;9.388;2023-11-19T08:33:11;98145.84;;;15.84;100.00
34482;BME280;20720;48.886;9.388;2023-11-19T08:35:36;98155.53;;;16.52;100.00
34482;BME280;20720;48.886;9.388;2023-11-19T08:38:02;98164.16;;;16.14;100.00
34482;BME280;20720;48.886;9.388;2023-11-19T08:40:28;98154.81;;;16.73;100.00
34482;BME280;20720;48.886;9.388;2023-11-19T08:42:55;98157.88;;;16.20;100.00
34482;BME280;20720;48.886;9.388;2023-11-19T08:45:21;98151.69;;;15.86;100.00
34482;BME280;20720;48.886;9.388;2023-11-19T08:47:46;98157.13;;;15.52;100.00
34482;BME280;20720;48.886;9.388;2023-11-19T08:50:12;98146.78;;;15.78;100.00
34482;BME280;20720;48.886;9.388;2023-11-19T08:52:37;98165.59;;;15.65;100.00
34482;BME280;20720;48.886;9.388;2023-11-19T08:55:03;98145.72;;;15.51;100.00
34482;BME280;20720;48.886;9.388;2023-11-19T08:57:30;98143.75;;;15.58;100.00
34482;BME280;20720;48.886;9.388;2023-11-19T08:59:56;98150.19;;;15.62;100.00
34482;BME280;20720;48.886;9.388;2023-11-19T09:02:21;98161.25;;;16.16;100.00
34482;BME280;20720;48.886;9.388;2023-11-19T09:04:46;98172.38;;;16.46;100.00
34482;BME280;20720;48.886;9.388;2023-11-19T09:07:11;98189.78;;;17.03;100.00
34482;BME280;20720;48.886;9.388;2023-11-19T09:09:37;98185.59;;;16.74;100.00
34482;BME280;20720;48.886;9.388;2023-11-19T09:12:03;98181.38;;;16.45;100.00
34482;BME280;20720;48.886;9.388;2023-11-19T09:14:29;98192.41;;;17.41;100.00
34482;BME280;20720;48.886;9.388;2023-11-19T09:16:54;98187.13;;;17.03;100.00
34482;BME280;20720;48.886;9.388;2023-11-19T09:19:19;98189.75;;;16.86;100.00
34482;BME280;20720;48.886;9.388;2023-11-19T09:21:45;98194.09;;;17.09;100.00
34482;BME280;20720;48.886;9.388;2023-11-19T09:24:11;98195.25;;;16.97;100.00
34482;BME280;20720;48.886;9.388;2023-11-19T09:26:36;98186.94;;;16.60;100.00
34482;BME280;20720;48.886;9.388;2023-11-19T09:29:02;98199.34;;;15.98;100.00
34482;BME280;20720;48.886;9.388;2023-11-19T09:31:27;98199.66;;;16.91;100.00
34482;BME280;20720;48.886;9.388;2023-11-19T09:33:52;98204.72;;;16.92;100.00
34482;BME280;20720;48.886;9.388;2023-11-19T09:36:18;98206.66;;;16.97;100.00
34482;BME280;20720;48.886;9.388;2023-11-19T09:38:44;98199.75;;;16.63;100.00
34482;BME280;20720;48.886;9.388;2023-11-19T09:41:10;98202.66;;;16.78;100.00
34482;BME280;20720;48.886;9.388;2023-11-19T09:43:38;98202.69;;;17.54;100.00
34482;BME280;20720;48.886;9.388;2023-11-19T09:46:05;98205.38;;;16.83;100.00
34482;BME280;20720;48.886;9.388;2023-11-19T09:48:34;98209.78;;;16.94;100.00
34482;BME280;20720;48.886;9.388;2023-11-19T09:51:04;98208.91;;;16.55;100.00
34482;BME280;20720;48.886;9.388;2023-11-19T09:53:30;98218.81;;;16.93;100.00
34482;BME280;20720;48.886;9.388;2023-11-19T09:55:57;98228.22;;;16.84;100.00
34482;BME280;20720;48.886;9.388;2023-11-19T09:58:24;98225.88;;;16.43;100.00
34482;BME280;20720;48.886;9.388;2023-11-19T10:00:51;98217.91;;;17.04;100.00
34482;BME280;20720;48.886;9.388;2023-11-19T10:03:17;98215.53;;;16.86;100.00
34482;BME280;20720;48.886;9.388;2023-11-19T10:05:42;98204.56;;;16.21;100.00
34482;BME280;20720;48.886;9.388;2023-11-19T10:08:07;98213.88;;;17.18;100.00
34482;BME280;20720;48.886;9.388;2023-11-19T10:10:33;98210.25;;;17.62;100.00
34482;BME280;20720;48.886;9.388;2023-11-19T10:12:59;98211.84;;;17.25;100.00
34482;BME280;20720;48.886;9.388;2023-11-19T10:15:25;98209.75;;;17.27;100.00
34482;BME280;20720;48.886;9.388;2023-11-19T10:17:52;98205.47;;;18.56;100.00
34482;BME280;20720;48.886;9.388;2023-11-19T10:20:20;98216.69;;;17.66;100.00
34482;BME280;20720;48.886;9.388;2023-11-19T10:22:45;98206.66;;;17.73;100.00
34482;BME280;20720;48.886;9.388;2023-11-19T10:25:27;98201.94;;;18.24;100.00
34482;BME280;20720;48.886;9.388;2023-11-19T10:27:54;98196.22;;;18.37;100.00
34482;BME280;20720;48.886;9.388;2023-11-19T10:30:29;98215.31;;;18.07;100.00
34482;BME280;20720;48.886;9.388;2023-11-19T10:33:08;98201.31;;;18.70;100.00
34482;BME280;20720;48.886;9.388;2023-11-19T10:35:35;98193.53;;;18.95;100.00
34482;BME280;20720;48.886;9.388;2023-11-19T10:38:15;98208.84;;;19.15;100.00
34482;BME280;20720;48.886;9.388;2023-11-19T10:40:41;98204.63;;;19.60;100.00
34482;BME280;20720;48.886;9.388;2023-11-19T10:43:06;98205.16;;;19.62;100.00
34482;BME280;20720;48.886;9.388;2023-11-19T10:45:35;98210.78;;;19.66;100.00
34482;BME280;20720;48.886;9.388;2023-11-19T10:48:02;98207.50;;;19.59;100.00
34482;BME280;20720;48.886;9.388;2023-11-19T10:50:31;98213.00;;;18.64;100.00
34482;BME280;20720;48.886;9.388;2023-11-19T10:52:57;98212.91;;;18.91;100.00
34482;BME280;20720;48.886;9.388;2023-11-19T10:55:29;98214.47;;;19.18;100.00
34482;BME280;20720;48.886;9.388;2023-11-19T10:58:03;98208.94;;;18.88;100.00
34482;BME280;20720;48.886;9.388;2023-11-19T11:00:52;98204.34;;;18.52;100.00
34482;BME280;20720;48.886;9.388;2023-11-19T11:03:21;98196.19;;;18.10;100.00
34482;BME280;20720;48.886;9.388;2023-11-19T11:05:48;98202.09;;;17.91;100.00
34482;BME280;20720;48.886;9.388;2023-11-19T11:08:14;98197.78;;;18.11;100.00
34482;BME280;20720;48.886;9.388;2023-11-19T11:10:43;98205.31;;;17.49;100.00
34482;BME280;20720;48.886;9.388;2023-11-19T11:13:09;98185.56;;;18.10;100.00
34482;BME280;20720;48.886;9.388;2023-11-19T11:15:35;98197.56;;;18.39;100.00
34482;BME280;20720;48.886;9.388;2023-11-19T11:18:04;98197.53;;;17.64;100.00
34482;BME280;20720;48.886;9.388;2023-11-19T11:20:33;98193.31;;;18.70;100.00
34482;BME280;20720;48.886;9.388;2023-11-19T11:32:14;98198.59;;;19.33;100.00
34482;BME280;20720;48.886;9.388;2023-11-19T11:39:17;98215.97;;;20.03;89.18
34482;BME280;20720;48.886;9.388;2023-11-19T11:41:43;98213.56;;;21.77;84.09
34482;BME280;20720;48.886;9.388;2023-11-19T11:44:10;98212.84;;;20.31;89.06
34482;BME280;20720;48.886;9.388;2023-11-19T11:49:05;98221.22;;;21.10;84.90
34482;BME280;20720;48.886;9.388;2023-11-19T11:54:09;98208.03;;;19.56;91.89
34482;BME280;20720;48.886;9.388;2023-11-19T11:56:38;98200.78;;;20.08;91.73
34482;BME280;20720;48.886;9.388;2023-11-19T11:59:19;98188.34;;;20.34;91.42
34482;BME280;20720;48.886;9.388;2023-11-19T12:01:59;98194.28;;;19.79;91.03
34482;BME280;20720;48.886;9.388;2023-11-19T12:04:28;98187.28;;;20.55;86.16
34482;BME280;20720;48.886;9.388;2023-11-19T12:07:13;98187.78;;;21.32;86.40
34482;BME280;20720;48.886;9.388;2023-11-19T12:09:45;98178.06;;;22.20;80.84
34482;BME280;20720;48.886;9.388;2023-11-19T12:12:18;98183.53;;;21.16;84.27
34482;BME280;20720;48.886;9.388;2023-11-19T12:15:05;98180.84;;;20.41;87.11
34482;BME280;20720;48.886;9.388;2023-11-19T12:20:00;98174.16;;;19.46;94.30
34482;BME280;20720;48.886;9.388;2023-11-19T12:22:26;98171.00;;;18.71;97.12
34482;BME280;20720;48.886;9.388;2023-11-19T12:24:53;98169.16;;;18.18;97.49
34482;BME280;20720;48.886;9.388;2023-11-19T12:27:19;98157.66;;;18.66;98.98
34482;BME280;20720;48.886;9.388;2023-11-19T12:29:47;98163.19;;;18.96;97.13
34482;BME280;20720;48.886;9.388;2023-11-19T12:32:12;98166.28;;;18.25;99.57
34482;BME280;20720;48.886;9.388;2023-11-19T12:34:38;98160.47;;;18.54;99.21
34482;BME280;20720;48.886;9.388;2023-11-19T12:37:04;98143.50;;;18.34;100.00
34482;BME280;20720;48.886;9.388;2023-11-19T12:39:30;98141.03;;;17.96;100.00
34482;BME280;20720;48.886;9.388;2023-11-19T12:41:55;98143.19;;;18.30;100.00
34482;BME280;20720;48.886;9.388;2023-11-19T12:44:21;98143.69;;;18.22;100.00
34482;BME280;20720;48.886;9.388;2023-11-19T12:46:46;98129.78;;;18.78;100.00
34482;BME280;20720;48.886;9.388;2023-11-19T12:49:23;98127.38;;;18.77;94.92
34482;BME280;20720;48.886;9.388;2023-11-19T12:51:48;98124.81;;;18.92;93.03
34482;BME280;20720;48.886;9.388;2023-11-19T12:54:14;98121.13;;;19.50;92.03
34482;BME280;20720;48.886;9.388;2023-11-19T12:56:39;98124.38;;;19.72;83.93
34482;BME280;20720;48.886;9.388;2023-11-19T12:59:12;98124.09;;;19.07;85.94
34482;BME280;20720;48.886;9.388;2023-11-19T13:01:38;98137.69;;;18.37;88.64
34482;BME280;20720;48.886;9.388;2023-11-19T13:04:16;98129.44;;;18.38;89.82
34482;BME280;20720;48.886;9.388;2023-11-19T13:06:47;98124.56;;;17.99;91.22
34482;BME280;20720;48.886;9.388;2023-11-19T13:09:23;98128.47;;;18.18;91.99
34482;BME280;20720;48.886;9.388;2023-11-19T13:11:49;98131.41;;;19.31;88.14